Time;durP1;ratioP1;P1;durP2;ratioP2;P2;SDS_P1;SDS_P2;PMS_P1;PMS_P2;Temp;Humidity;BMP_temperature;BMP_pressure;BME280_temperature;BME280_humidity;BME280_pressure;Samples;Min_cycle;Max_cycle;Signal;HPM_P1;HPM_P2
2022/04/10 00:00:09;;;;;;;;;34.25;29.25;;;;;7.31;58.23;101958.41;2452952;27;45372;-85
2022/04/10 00:01:19;;;;;;;;;32.25;27.25;;;;;7.30;58.48;101952.31;2460445;27;47106;-85
2022/04/10 00:02:30;;;;;;;;;28.50;27.50;;;;;7.27;58.62;101960.16;2448723;27;44644;-85
2022/04/10 00:03:40;;;;;;;;;32.75;29.00;;;;;7.26;58.64;101954.94;2440708;28;48008;-85
2022/04/10 00:04:51;;;;;;;;;30.50;27.25;;;;;7.24;58.82;101967.13;2440770;28;45454;-85
2022/04/10 00:06:01;;;;;;;;;28.00;27.25;;;;;7.22;58.73;101963.63;2442897;28;47602;-85
2022/04/10 00:07:12;;;;;;;;;31.00;26.75;;;;;7.19;58.63;101960.16;2440829;28;45313;-85
2022/04/10 00:08:22;;;;;;;;;33.00;29.00;;;;;7.17;58.69;101951.44;2449319;28;46077;-85
2022/04/10 00:09:32;;;;;;;;;31.25;28.50;;;;;7.15;59.10;101954.91;2445601;28;45152;-85
2022/04/10 00:10:43;;;;;;;;;29.25;23.00;;;;;7.14;58.91;101958.38;2443862;28;46242;-85
2022/04/10 00:11:53;;;;;;;;;29.00;28.75;;;;;7.12;58.64;101953.16;2440860;28;45224;-85
2022/04/10 00:13:03;;;;;;;;;30.50;28.50;;;;;7.10;59.01;101957.53;2445669;27;47990;-85
2022/04/10 00:14:14;;;;;;;;;28.50;27.50;;;;;7.09;58.67;101954.03;2446696;28;45196;-84
2022/04/10 00:15:24;;;;;;;;;28.50;26.00;;;;;7.08;59.09;101949.69;2433166;28;46840;-84
2022/04/10 00:16:35;;;;;;;;;23.75;22.50;;;;;7.06;59.04;101950.56;2456552;27;45649;-85
2022/04/10 00:17:45;;;;;;;;;29.50;25.75;;;;;7.05;59.21;101954.91;2452385;27;46370;-85
2022/04/10 00:18:55;;;;;;;;;27.75;24.00;;;;;7.05;59.03;101948.81;2440683;28;44653;-90
2022/04/10 00:20:07;;;;;;;;;30.00;26.25;;;;;7.04;59.20;101952.28;2440867;28;45507;-89
2022/04/10 00:21:17;;;;;;;;;28.25;26.00;;;;;7.01;58.83;101947.06;2448352;28;45157;-90
2022/04/10 00:22:28;;;;;;;;;26.25;25.00;;;;;6.97;58.67;101944.44;2446126;28;46348;-90
2022/04/10 00:23:38;;;;;;;;;27.00;23.00;;;;;6.96;58.87;101942.66;2441855;28;45194;-89
2022/04/10 00:24:48;;;;;;;;;30.25;27.25;;;;;6.95;59.47;101947.91;2450396;27;48297;-85
2022/04/10 00:25:59;;;;;;;;;25.25;23.50;;;;;6.94;59.21;101944.41;2441022;28;44785;-85
2022/04/10 00:27:13;;;;;;;;;27.25;24.50;;;;;6.91;59.45;101939.22;2440643;28;45523;-84
2022/04/10 00:28:24;;;;;;;;;23.50;19.75;;;;;6.91;59.18;101939.22;2441469;28;45319;-83
2022/04/10 00:29:34;;;;;;;;;23.25;23.25;;;;;6.89;59.12;101942.69;2441240;28;46332;-86
2022/04/10 00:30:45;;;;;;;;;29.50;26.25;;;;;6.86;59.44;101939.16;2440160;28;45315;-85
2022/04/10 00:31:55;;;;;;;;;23.50;21.25;;;;;6.85;59.27;101932.22;2440619;28;46495;-85
2022/04/10 00:33:05;;;;;;;;;25.00;24.25;;;;;6.84;59.58;101933.06;2441385;28;45448;-85
2022/04/10 00:34:16;;;;;;;;;24.25;23.50;;;;;6.85;59.47;101942.66;2446026;28;45592;-86
2022/04/10 00:35:26;;;;;;;;;26.50;20.75;;;;;6.82;59.32;101931.31;2450617;27;45165;-85
2022/04/10 00:36:37;;;;;;;;;27.25;23.25;;;;;6.82;59.63;101936.56;2451075;27;45288;-85
2022/04/10 00:37:47;;;;;;;;;24.00;21.75;;;;;6.81;59.61;101942.66;2441526;28;45156;-85
2022/04/10 00:38:58;;;;;;;;;26.50;22.75;;;;;6.79;59.27;101941.78;2442431;28;45333;-85
2022/04/10 00:40:09;;;;;;;;;27.50;24.50;;;;;6.77;59.58;101935.66;2444616;28;45272;-85
2022/04/10 00:41:19;;;;;;;;;25.25;21.00;;;;;6.77;59.53;101938.28;2440733;28;46549;-86
2022/04/10 00:42:41;;;;;;;;;18.50;17.75;;;;;6.74;59.41;101942.63;2441295;28;45375;-86
2022/04/10 00:44:09;;;;;;;;;22.25;21.50;;;;;6.71;59.15;101932.19;2441214;28;45431;-86
2022/04/10 00:45:20;;;;;;;;;27.00;24.00;;;;;6.71;59.84;101947.88;2441087;28;44620;-86
2022/04/10 00:46:31;;;;;;;;;24.00;22.00;;;;;6.66;59.81;101933.91;2440449;28;47592;-85
2022/04/10 00:47:44;;;;;;;;;26.50;25.00;;;;;6.65;59.74;101937.38;2440390;28;44690;-84
2022/04/10 00:48:55;;;;;;;;;24.25;22.00;;;;;6.64;59.62;101944.34;2440596;28;46313;-84
2022/04/10 00:50:07;;;;;;;;;24.25;23.00;;;;;6.64;59.60;101943.50;2441171;28;44702;-85
2022/04/10 00:52:49;;;;;;;;;30.75;24.00;;;;;6.61;59.95;101944.34;2450791;28;45145;-85
2022/04/10 00:53:59;;;;;;;;;22.00;20.00;;;;;6.59;59.89;101937.38;2443526;27;45664;-84
2022/04/10 00:55:10;;;;;;;;;24.50;21.00;;;;;6.58;59.95;101938.22;2444847;28;45212;-84
2022/04/10 00:56:21;;;;;;;;;26.25;22.50;;;;;6.57;60.00;101939.13;2448870;28;45751;-85
2022/04/10 00:57:32;;;;;;;;;24.00;23.50;;;;;6.54;60.57;101934.75;2448868;28;45388;-85
2022/04/10 00:58:42;;;;;;;;;20.75;20.00;;;;;6.53;60.34;101939.09;2443976;28;46298;-85
2022/04/10 00:59:53;;;;;;;;;30.25;25.50;;;;;6.52;59.90;101941.69;2443201;28;45478;-81
2022/04/10 01:01:04;;;;;;;;;23.25;22.00;;;;;6.50;60.08;101936.47;2447450;28;46164;-80
2022/04/10 01:02:15;;;;;;;;;24.75;23.50;;;;;6.49;60.11;101939.97;2441149;28;45362;-80
2022/04/10 01:03:25;;;;;;;;;26.75;23.75;;;;;6.46;59.94;101939.94;2440869;28;45412;-80
2022/04/10 01:04:36;;;;;;;;;21.00;18.25;;;;;6.47;59.90;101949.50;2441042;28;45315;-79
2022/04/10 01:05:47;;;;;;;;;24.75;23.00;;;;;6.46;60.18;101945.16;2440952;28;45335;-80
2022/04/10 01:06:59;;;;;;;;;26.75;22.25;;;;;6.44;60.14;101941.69;2441175;28;44649;-78
2022/04/10 01:08:10;;;;;;;;;28.00;24.25;;;;;6.43;60.31;101945.16;2441041;28;45426;-83
2022/04/10 01:09:20;;;;;;;;;21.25;20.75;;;;;6.41;60.23;101944.28;2441134;28;44651;-83
2022/04/10 01:10:31;;;;;;;;;24.25;21.25;;;;;6.41;60.46;101950.38;2443559;28;45516;-86
2022/04/10 01:11:41;;;;;;;;;23.75;23.25;;;;;6.40;60.17;101947.75;2443984;27;45248;-86
2022/04/10 01:12:52;;;;;;;;;24.00;21.25;;;;;6.37;60.48;101948.59;2447808;28;45448;-86
2022/04/10 01:14:06;;;;;;;;;24.50;21.25;;;;;6.37;59.92;101946.00;2450278;27;45427;-86
2022/04/10 01:15:17;;;;;;;;;23.00;20.00;;;;;6.36;59.87;101946.00;2440730;28;45326;-86
2022/04/10 01:16:28;;;;;;;;;24.00;22.50;;;;;6.33;60.22;101946.84;2441517;27;44662;-86
2022/04/10 01:17:39;;;;;;;;;30.25;25.25;;;;;6.35;60.32;101949.47;2435500;28;48145;-86
2022/04/10 01:18:51;;;;;;;;;27.50;26.50;;;;;6.33;60.20;101946.84;2450451;28;45245;-87
2022/04/10 01:20:03;;;;;;;;;32.75;24.75;;;;;6.34;60.58;101950.34;2450476;27;46375;-86
2022/04/10 01:21:23;;;;;;;;;29.75;23.25;;;;;6.27;60.27;101947.69;2441305;28;45318;-86
2022/04/10 01:22:35;;;;;;;;;30.25;24.25;;;;;6.27;60.50;101947.69;2440892;28;46173;-86
2022/04/10 01:23:47;;;;;;;;;26.75;20.00;;;;;6.28;60.31;101939.00;2441165;28;44593;-86
2022/04/10 01:24:58;;;;;;;;;28.25;24.00;;;;;6.28;60.69;101945.94;2440737;28;46463;-86
2022/04/10 01:26:09;;;;;;;;;25.25;23.75;;;;;6.26;60.62;101940.75;2441265;28;44791;-86
2022/04/10 01:27:19;;;;;;;;;29.75;23.75;;;;;6.25;60.50;101946.81;2447084;28;45473;-86
2022/04/10 01:28:29;;;;;;;;;26.75;24.00;;;;;6.26;60.93;101945.97;2446125;27;44803;-84
2022/04/10 01:29:40;;;;;;;;;21.50;19.00;;;;;6.25;60.46;101938.97;2439976;28;46908;-85
2022/04/10 01:30:50;;;;;;;;;28.75;24.00;;;;;6.26;60.54;101940.75;2440294;28;45299;-85
2022/04/10 01:32:00;;;;;;;;;31.50;27.50;;;;;6.24;60.45;101942.47;2440872;28;45476;-84
2022/04/10 01:33:11;;;;;;;;;24.25;22.25;;;;;6.21;60.85;101939.84;2446506;28;45221;-84
2022/04/10 01:34:23;;;;;;;;;24.75;22.50;;;;;6.22;60.29;101944.22;2441130;27;46294;-84
2022/04/10 01:35:34;;;;;;;;;24.75;23.75;;;;;6.19;60.37;101944.19;2445430;28;45764;-83
2022/04/10 01:36:45;;;;;;;;;28.25;25.00;;;;;6.18;60.69;101943.31;2449299;28;46233;-84
2022/04/10 01:37:57;;;;;;;;;26.75;23.75;;;;;6.16;60.97;101938.94;2443448;27;45207;-83
2022/04/10 01:39:09;;;;;;;;;25.00;22.00;;;;;6.19;60.91;101949.41;2440749;28;46392;-83
2022/04/10 01:40:20;;;;;;;;;23.25;23.00;;;;;6.17;60.70;101953.75;2440945;28;45157;-81
2022/04/10 01:41:30;;;;;;;;;25.50;24.00;;;;;6.15;60.70;101943.28;2440867;28;45420;-81
2022/04/10 01:42:41;;;;;;;;;25.25;23.25;;;;;6.16;60.77;101944.16;2440862;28;45442;-81
2022/04/10 01:43:53;;;;;;;;;26.50;24.00;;;;;6.17;60.76;101945.91;2440671;28;45441;-82
2022/04/10 01:45:03;;;;;;;;;29.75;23.75;;;;;6.15;60.52;101945.91;2440713;28;44774;-82
2022/04/10 01:46:14;;;;;;;;;23.25;20.50;;;;;6.14;60.86;101946.78;2440782;28;45461;-82
2022/04/10 01:47:25;;;;;;;;;28.50;26.25;;;;;6.13;60.82;101944.13;2441311;28;45390;-82
2022/04/10 01:48:35;;;;;;;;;26.75;23.75;;;;;6.11;61.05;101941.53;2444978;28;46511;-82
2022/04/10 01:49:46;;;;;;;;;25.00;25.00;;;;;6.10;60.76;101934.56;2447901;28;45465;-83
2022/04/10 01:50:56;;;;;;;;;28.75;27.00;;;;;6.08;60.88;101933.69;2434723;28;48292;-83
2022/04/10 01:52:07;;;;;;;;;29.50;26.75;;;;;6.06;60.83;101937.97;2451465;28;45260;-83
2022/04/10 01:53:17;;;;;;;;;33.25;28.50;;;;;6.05;61.05;101936.25;2452056;28;45290;-83
2022/04/10 01:54:27;;;;;;;;;25.75;23.50;;;;;6.04;61.08;101942.34;2452316;27;45224;-83
2022/04/10 01:55:38;;;;;;;;;27.50;25.00;;;;;6.02;60.68;101936.22;2450260;27;45377;-83
2022/04/10 01:56:48;;;;;;;;;28.00;25.75;;;;;6.01;60.73;101930.13;2442511;28;45137;-83
2022/04/10 01:57:59;;;;;;;;;29.00;22.50;;;;;6.01;61.24;101930.13;2445411;28;46985;-83
2022/04/10 01:59:09;;;;;;;;;26.00;23.75;;;;;5.99;61.12;101925.78;2451402;28;45311;-83
2022/04/10 02:00:20;;;;;;;;;30.75;25.75;;;;;5.99;60.97;101931.88;2442167;28;46209;-83
2022/04/10 02:01:30;;;;;;;;;27.50;23.75;;;;;5.99;60.87;101929.25;2441668;28;45259;-83
2022/04/10 02:02:40;;;;;;;;;25.75;24.50;;;;;5.97;61.11;101937.06;2441775;28;46258;-83
2022/04/10 02:03:51;;;;;;;;;30.50;29.00;;;;;5.98;61.26;101932.72;2441751;28;45385;-83
2022/04/10 02:05:01;;;;;;;;;30.25;29.00;;;;;5.97;61.22;101931.84;2441635;28;45332;-83
2022/04/10 02:06:11;;;;;;;;;29.75;28.25;;;;;5.97;61.47;101936.22;2441652;28;45160;-83
2022/04/10 02:07:22;;;;;;;;;29.50;25.25;;;;;5.94;61.38;101928.34;2441733;28;46084;-83
2022/04/10 02:08:34;;;;;;;;;26.00;22.25;;;;;5.93;61.13;101931.81;2442565;28;45310;-81
2022/04/10 02:09:44;;;;;;;;;29.75;28.25;;;;;5.94;61.29;101929.22;2443858;28;45430;-81
2022/04/10 02:10:55;;;;;;;;;32.25;27.75;;;;;5.94;61.19;101933.56;2447480;28;45268;-81
2022/04/10 02:12:07;;;;;;;;;29.50;27.00;;;;;5.95;61.06;101935.34;2443218;28;46121;-81
2022/04/10 02:13:17;;;;;;;;;26.00;23.00;;;;;5.89;61.32;101924.84;2446011;28;44676;-81
2022/04/10 02:14:27;;;;;;;;;28.75;26.50;;;;;5.92;61.25;101935.31;2451519;27;45205;-81
2022/04/10 02:15:38;;;;;;;;;31.50;27.75;;;;;5.89;61.57;101925.72;2442237;28;45219;-81
2022/04/10 02:16:49;;;;;;;;;26.25;23.25;;;;;5.88;61.30;101923.13;2448245;27;45580;-81
2022/04/10 02:17:59;;;;;;;;;29.00;25.75;;;;;5.88;61.28;101937.00;2442447;28;46423;-81
2022/04/10 02:19:09;;;;;;;;;25.00;24.50;;;;;5.88;61.31;101930.94;2441460;28;48108;-80
2022/04/10 02:20:20;;;;;;;;;27.50;24.50;;;;;5.86;61.54;101930.91;2441663;28;45434;-80
2022/04/10 02:21:31;;;;;;;;;26.00;25.00;;;;;5.84;61.62;101930.91;2442223;28;46115;-80
2022/04/10 02:22:41;;;;;;;;;23.75;21.75;;;;;5.82;61.38;101931.78;2442327;28;44719;-80
2022/04/10 02:23:51;;;;;;;;;24.00;23.25;;;;;5.83;61.77;101928.28;2442291;28;45329;-80
2022/04/10 02:25:02;;;;;;;;;30.00;26.25;;;;;5.81;61.69;101924.78;2442206;28;45342;-80
2022/04/10 02:26:13;;;;;;;;;28.75;25.00;;;;;5.81;61.07;101933.50;2447558;28;46457;-80
2022/04/10 02:27:23;;;;;;;;;30.25;26.75;;;;;5.81;61.75;101935.22;2449878;28;45458;-85
2022/04/10 02:28:33;;;;;;;;;29.50;25.00;;;;;5.77;61.79;101931.75;2444675;28;45371;-88
2022/04/10 02:29:44;;;;;;;;;32.75;27.75;;;;;5.80;61.61;101938.72;2441380;28;45232;-89
2022/04/10 02:30:54;;;;;;;;;26.25;24.25;;;;;5.76;61.41;101932.59;2441650;28;45562;-89
2022/04/10 02:32:05;;;;;;;;;26.50;24.00;;;;;5.76;61.64;101935.19;2440358;28;45311;-88
2022/04/10 02:33:15;;;;;;;;;28.00;24.75;;;;;5.74;61.33;101932.59;2441581;28;46153;-88
2022/04/10 02:34:26;;;;;;;;;32.00;24.50;;;;;5.72;61.63;101938.66;2443963;28;45303;-87
2022/04/10 02:35:36;;;;;;;;;23.00;22.25;;;;;5.72;61.73;101934.31;2451874;27;45257;-85
2022/04/10 02:36:47;;;;;;;;;27.00;26.25;;;;;5.69;61.72;101929.06;2451147;28;45297;-86
2022/04/10 02:37:57;;;;;;;;;32.75;25.50;;;;;5.71;61.74;101942.13;2451283;28;45244;-85
2022/04/10 02:39:07;;;;;;;;;30.00;28.25;;;;;5.68;61.66;101940.34;2451953;27;45211;-84
2022/04/10 02:40:18;;;;;;;;;31.75;28.00;;;;;5.69;61.99;101934.28;2451971;27;45200;-82
2022/04/10 02:41:28;;;;;;;;;37.00;31.00;;;;;5.66;61.87;101934.25;2451905;27;45199;-82
2022/04/10 02:42:39;;;;;;;;;29.25;27.25;;;;;5.65;61.68;101936.88;2450996;28;48016;-82
2022/04/10 02:43:49;;;;;;;;;30.75;29.00;;;;;5.65;61.62;101940.34;2451594;28;44571;-81
2022/04/10 02:45:00;;;;;;;;;32.25;26.50;;;;;5.63;61.92;101939.44;2447386;27;46417;-87
2022/04/10 02:46:11;;;;;;;;;28.75;24.50;;;;;5.63;61.92;101942.94;2449929;28;44728;-86
2022/04/10 02:47:21;;;;;;;;;26.25;23.75;;;;;5.63;61.85;101947.28;2443915;28;46161;-87
2022/04/10 02:48:32;;;;;;;;;26.50;24.75;;;;;5.60;61.94;101942.94;2453852;27;45417;-88
2022/04/10 02:49:42;;;;;;;;;29.25;27.00;;;;;5.58;62.15;101943.78;2448374;28;47176;-88
2022/04/10 02:50:53;;;;;;;;;24.50;23.75;;;;;5.58;61.82;101947.25;2441643;28;44665;-84
2022/04/10 02:52:04;;;;;;;;;37.75;33.25;;;;;5.57;61.78;101950.72;2450432;28;45382;-83
2022/04/10 02:53:14;;;;;;;;;34.75;30.75;;;;;5.57;62.28;101948.13;2451065;28;44614;-83
2022/04/10 02:54:24;;;;;;;;;34.25;29.25;;;;;5.54;62.07;101944.59;2451236;28;45325;-83
2022/04/10 02:55:35;;;;;;;;;32.00;29.75;;;;;5.52;62.46;101942.00;2448326;27;45324;-83
2022/04/10 02:56:45;;;;;;;;;35.75;27.75;;;;;5.55;62.32;101951.56;2444659;28;46670;-86
2022/04/10 02:57:55;;;;;;;;;35.00;33.25;;;;;5.50;61.97;101935.91;2451598;28;45315;-87
2022/04/10 02:59:06;;;;;;;;;38.50;34.00;;;;;5.49;61.82;101932.41;2444289;28;48399;-88
2022/04/10 03:00:16;;;;;;;;;33.50;28.75;;;;;5.52;62.12;101942.00;2443765;28;45263;-87
2022/04/10 03:01:27;;;;;;;;;37.25;31.75;;;;;5.54;62.38;101947.22;2450924;28;48430;-86
2022/04/10 03:02:41;;;;;;;;;29.25;29.25;;;;;5.56;62.18;101945.47;2451306;28;45271;-86
2022/04/10 03:03:53;;;;;;;;;33.00;31.00;;;;;5.52;61.93;101947.22;2450816;28;48422;-85
2022/04/10 03:05:04;;;;;;;;;35.25;31.25;;;;;5.49;62.41;101940.22;2453755;27;45369;-85
2022/04/10 03:06:14;;;;;;;;;33.00;28.25;;;;;5.50;62.14;101944.59;2451971;27;45441;-84
2022/04/10 03:07:24;;;;;;;;;33.50;29.50;;;;;5.51;62.27;101950.66;2441966;28;45310;-86
2022/04/10 03:08:35;;;;;;;;;37.00;30.50;;;;;5.49;62.25;101948.06;2441712;28;46565;-85
2022/04/10 03:09:45;;;;;;;;;33.75;31.00;;;;;5.51;62.34;101953.28;2441175;28;45344;-83
2022/04/10 03:10:57;;;;;;;;;35.50;32.00;;;;;5.48;62.60;101940.22;2447235;28;45354;-83
2022/04/10 03:12:08;;;;;;;;;39.75;33.75;;;;;5.50;62.28;101947.22;2445238;27;45327;-84
2022/04/10 03:13:18;;;;;;;;;40.50;33.00;;;;;5.48;62.27;101945.44;2443286;28;45492;-84
2022/04/10 03:14:29;;;;;;;;;39.00;35.25;;;;;5.49;62.74;101957.59;2446214;28;45219;-82
2022/04/10 03:15:39;;;;;;;;;46.75;38.25;;;;;5.48;62.61;101953.28;2442496;27;45313;-82
2022/04/10 03:16:49;;;;;;;;;45.00;39.00;;;;;5.46;62.55;101953.25;2452312;27;45235;-84
2022/04/10 03:18:01;;;;;;;;;49.25;42.75;;;;;5.47;62.21;101954.13;2442405;28;46848;-87
2022/04/10 03:19:11;;;;;;;;;48.00;39.00;;;;;5.46;62.40;101957.56;2444037;28;45365;-86
2022/04/10 03:20:22;;;;;;;;;48.75;41.50;;;;;5.43;62.46;101955.84;2450827;27;45393;-85
2022/04/10 03:21:32;;;;;;;;;46.50;38.50;;;;;5.42;62.39;101956.69;2451606;27;45317;-84
2022/04/10 03:22:42;;;;;;;;;48.50;39.00;;;;;5.43;62.79;101957.56;2450795;28;48094;-85
2022/04/10 03:23:53;;;;;;;;;46.00;39.00;;;;;5.44;62.43;101962.78;2443825;28;45245;-84
2022/04/10 03:25:03;;;;;;;;;51.00;37.75;;;;;5.43;62.70;101955.84;2450856;28;45447;-86
2022/04/10 03:26:14;;;;;;;;;49.75;40.00;;;;;5.44;62.55;101967.13;2442832;27;45388;-85
2022/04/10 03:27:24;;;;;;;;;36.25;30.25;;;;;5.45;62.68;101961.06;2446965;27;46293;-83
2022/04/10 03:28:35;;;;;;;;;53.25;43.00;;;;;5.40;62.61;101961.91;2451291;27;45214;-83
2022/04/10 03:29:45;;;;;;;;;47.75;39.00;;;;;5.45;62.64;101968.88;2449433;28;45668;-85
2022/04/10 03:30:58;;;;;;;;;45.00;37.00;;;;;5.43;62.66;101962.78;2451070;27;44660;-85
2022/04/10 03:32:08;;;;;;;;;41.50;33.50;;;;;5.43;62.97;101968.88;2441838;28;46815;-92
2022/04/10 03:33:19;;;;;;;;;44.25;36.50;;;;;5.40;62.81;101964.50;2441231;28;44679;-92
2022/04/10 03:34:29;;;;;;;;;51.25;41.00;;;;;5.37;62.63;101964.47;2442290;28;45381;-92
2022/04/10 03:35:39;;;;;;;;;47.75;39.50;;;;;5.38;62.92;101966.22;2441255;28;44617;-92
2022/04/10 03:36:50;;;;;;;;;45.50;40.75;;;;;5.36;62.80;101956.66;2449977;28;47281;-83
2022/04/10 03:38:00;;;;;;;;;45.75;38.00;;;;;5.37;62.85;101961.88;2445776;28;45302;-82
2022/04/10 03:39:10;;;;;;;;;45.00;38.75;;;;;5.34;62.79;101959.22;2441550;28;45274;-82
2022/04/10 03:40:21;;;;;;;;;54.25;43.00;;;;;5.35;63.24;101958.38;2441883;28;44606;-82
2022/04/10 03:41:31;;;;;;;;;50.75;40.25;;;;;5.35;63.07;101949.69;2441489;28;46322;-82
2022/04/10 03:42:41;;;;;;;;;50.75;38.50;;;;;5.34;63.13;101953.13;2441617;28;45269;-82
2022/04/10 03:43:52;;;;;;;;;46.00;39.50;;;;;5.36;62.83;101961.88;2442749;28;45307;-91
2022/04/10 03:45:02;;;;;;;;;51.25;40.25;;;;;5.33;62.80;101956.63;2440878;28;45405;-91
2022/04/10 03:46:12;;;;;;;;;51.25;42.00;;;;;5.35;63.14;101960.09;2447383;28;45441;-92
2022/04/10 03:47:23;;;;;;;;;43.50;38.75;;;;;5.33;63.19;101962.72;2444837;27;45441;-93
2022/04/10 03:48:34;;;;;;;;;50.00;39.75;;;;;5.33;63.11;101970.53;2449531;27;45954;-92
2022/04/10 03:49:44;;;;;;;;;43.75;37.75;;;;;5.33;62.91;101961.84;2451012;28;45308;-92
2022/04/10 03:50:55;;;;;;;;;43.25;38.50;;;;;5.33;62.87;101965.31;2442470;28;47260;-89
2022/04/10 03:52:06;;;;;;;;;42.50;36.00;;;;;5.30;62.75;101962.69;2441158;28;45328;-85
2022/04/10 03:53:16;;;;;;;;;43.00;36.25;;;;;5.32;62.81;101965.28;2442658;27;45605;-85
2022/04/10 03:54:27;;;;;;;;;47.50;36.25;;;;;5.31;63.07;101968.78;2441531;28;45279;-85
2022/04/10 03:55:37;;;;;;;;;44.00;37.25;;;;;5.31;62.82;101966.16;2441404;28;45268;-86
2022/04/10 03:56:47;;;;;;;;;39.25;34.25;;;;;5.29;62.82;101956.59;2441724;28;45279;-87
2022/04/10 03:57:58;;;;;;;;;41.00;36.50;;;;;5.31;62.89;101960.94;2445562;28;46951;-86
2022/04/10 03:59:09;;;;;;;;;44.50;36.25;;;;;5.28;62.77;101954.81;2446847;28;45260;-87
2022/04/10 04:00:20;;;;;;;;;45.25;37.00;;;;;5.28;62.90;101959.19;2441168;28;45260;-87
2022/04/10 04:01:30;;;;;;;;;47.75;40.00;;;;;5.28;62.79;101961.78;2450702;27;45234;-87
2022/04/10 04:02:42;;;;;;;;;45.50;37.75;;;;;5.29;62.85;101955.69;2450650;28;46238;-87
2022/04/10 04:03:53;;;;;;;;;44.00;36.50;;;;;5.27;62.90;101962.66;2450634;28;45404;-90
2022/04/10 04:05:05;;;;;;;;;44.00;37.25;;;;;5.24;63.07;101960.88;2443386;28;46988;-90
2022/04/10 04:06:15;;;;;;;;;44.25;39.50;;;;;5.25;62.60;101961.75;2443731;28;45347;-88
2022/04/10 04:07:25;;;;;;;;;46.25;38.25;;;;;5.24;63.24;101960.00;2450011;28;46191;-88
2022/04/10 04:08:36;;;;;;;;;46.00;38.00;;;;;5.24;63.06;101962.59;2449308;28;44810;-88
2022/04/10 04:09:46;;;;;;;;;41.75;36.00;;;;;5.21;63.03;101962.59;2440739;28;45263;-88
2022/04/10 04:10:56;;;;;;;;;46.75;39.75;;;;;5.21;62.65;101957.38;2447202;28;45354;-88
2022/04/10 04:12:08;;;;;;;;;42.00;35.75;;;;;5.20;63.01;101955.63;2447585;27;45193;-88
2022/04/10 04:13:18;;;;;;;;;43.25;36.75;;;;;5.20;62.84;101956.50;2446037;28;45202;-88
2022/04/10 04:14:28;;;;;;;;;41.50;36.50;;;;;5.16;63.03;101950.38;2440414;28;48168;-88
2022/04/10 04:15:39;;;;;;;;;50.50;40.75;;;;;5.17;62.89;101956.47;2446971;28;44721;-88
2022/04/10 04:16:49;;;;;;;;;47.50;38.25;;;;;5.17;63.22;101948.66;2455462;27;48000;-88
2022/04/10 04:18:00;;;;;;;;;46.75;37.50;;;;;5.17;62.76;101951.25;2444395;28;44716;-89
2022/04/10 04:19:10;;;;;;;;;46.75;37.75;;;;;5.14;62.72;101949.50;2451163;27;46708;-88
2022/04/10 04:20:21;;;;;;;;;44.00;37.75;;;;;5.15;62.84;101953.84;2441425;28;45208;-88
2022/04/10 04:21:31;;;;;;;;;41.50;36.75;;;;;5.14;62.59;101957.31;2441226;28;45551;-88
2022/04/10 04:22:41;;;;;;;;;49.25;38.00;;;;;5.12;62.92;101959.03;2441764;28;45507;-88
2022/04/10 04:23:52;;;;;;;;;49.00;38.25;;;;;5.13;62.77;101952.09;2441313;28;45371;-88
2022/04/10 04:25:06;;;;;;;;;50.75;40.00;;;;;5.12;62.57;101956.44;2441263;28;44768;-87
2022/04/10 04:26:16;;;;;;;;;44.25;37.25;;;;;5.09;62.79;101953.78;2441242;28;45445;-88
2022/04/10 04:27:26;;;;;;;;;43.75;37.50;;;;;5.10;62.85;101957.28;2442872;28;45266;-88
2022/04/10 04:28:37;;;;;;;;;51.00;41.00;;;;;5.07;62.61;101960.72;2450918;27;45233;-86
2022/04/10 04:29:47;;;;;;;;;48.25;40.50;;;;;5.09;62.96;101964.22;2443829;27;44685;-85
2022/04/10 04:30:57;;;;;;;;;47.25;38.25;;;;;5.05;63.04;101958.09;2441174;28;45337;-84
2022/04/10 04:32:08;;;;;;;;;45.25;40.25;;;;;5.09;63.03;101968.56;2441462;28;45251;-85
2022/04/10 04:33:19;;;;;;;;;46.50;40.00;;;;;5.05;63.09;101962.44;2440295;28;47620;-85
2022/04/10 04:34:29;;;;;;;;;41.25;35.75;;;;;5.07;62.74;101961.59;2443292;28;45457;-85
2022/04/10 04:35:39;;;;;;;;;48.50;40.00;;;;;5.05;62.98;101963.31;2449928;27;47292;-85
2022/04/10 04:36:50;;;;;;;;;47.25;40.00;;;;;5.05;62.97;101962.44;2448173;28;45258;-84
2022/04/10 04:38:00;;;;;;;;;50.50;40.00;;;;;5.06;62.47;101961.59;2441119;28;46307;-84
2022/04/10 04:39:10;;;;;;;;;51.00;40.50;;;;;5.03;62.48;101958.94;2441356;28;44580;-84
2022/04/10 04:40:21;;;;;;;;;50.25;39.75;;;;;5.04;62.80;101965.88;2441377;28;45852;-84
2022/04/10 04:41:31;;;;;;;;;48.50;39.75;;;;;5.03;62.74;101966.78;2451220;27;45353;-84
2022/04/10 04:42:42;;;;;;;;;50.50;42.00;;;;;5.04;62.79;101968.50;2449881;28;46096;-84
2022/04/10 04:43:53;;;;;;;;;47.50;40.00;;;;;5.01;62.53;101969.34;2450588;28;45480;-87
2022/04/10 04:45:04;;;;;;;;;42.50;34.75;;;;;5.03;62.63;101975.47;2450485;27;46044;-86
2022/04/10 04:46:14;;;;;;;;;51.25;40.50;;;;;5.01;62.92;101977.16;2451169;28;45234;-87
2022/04/10 04:47:25;;;;;;;;;56.00;42.75;;;;;5.00;62.78;101974.53;2449828;27;46183;-87
2022/04/10 04:48:35;;;;;;;;;52.00;41.00;;;;;4.98;62.86;101974.53;2441324;28;45256;-86
2022/04/10 04:49:45;;;;;;;;;44.25;40.00;;;;;4.99;63.12;101980.63;2440894;28;46265;-85
2022/04/10 04:50:57;;;;;;;;;50.75;42.25;;;;;5.00;62.86;101987.56;2440449;28;45427;-83
2022/04/10 04:52:08;;;;;;;;;36.25;31.00;;;;;4.99;62.83;101991.91;2440616;28;46327;-84
2022/04/10 04:53:18;;;;;;;;;51.00;40.00;;;;;4.97;62.75;101983.22;2447876;28;45281;-83
2022/04/10 04:54:29;;;;;;;;;32.50;25.75;;;;;4.95;62.60;101988.41;2436973;28;48128;-81
2022/04/10 04:55:40;;;;;;;;;50.25;40.50;;;;;4.97;62.62;101995.34;2435623;28;45290;-82
2022/04/10 04:56:50;;;;;;;;;50.50;41.00;;;;;4.95;62.74;101993.63;2452910;27;47256;-82
2022/04/10 04:58:00;;;;;;;;;55.25;44.50;;;;;4.94;62.58;101993.59;2457290;27;44585;-82
2022/04/10 04:59:14;;;;;;;;;46.75;40.00;;;;;4.92;63.07;101993.56;2450918;27;46404;-85
2022/04/10 05:00:24;;;;;;;;;51.00;40.50;;;;;4.92;62.76;101996.19;2450675;27;45253;-85
2022/04/10 05:01:35;;;;;;;;;55.75;43.25;;;;;4.92;63.16;101998.78;2442543;27;45268;-89
2022/04/10 05:02:45;;;;;;;;;54.75;41.75;;;;;4.92;63.07;101997.91;2448025;28;44759;-89
2022/04/10 05:03:55;;;;;;;;;52.25;43.00;;;;;4.90;62.63;102003.13;2447601;27;45435;-85
2022/04/10 05:05:06;;;;;;;;;53.25;41.25;;;;;4.89;62.75;101998.75;2440173;28;45302;-83
2022/04/10 05:06:17;;;;;;;;;51.75;41.75;;;;;4.89;62.83;101996.16;2449759;28;46227;-83
2022/04/10 05:07:27;;;;;;;;;52.75;41.75;;;;;4.89;62.60;101997.91;2450995;27;46574;-80
2022/04/10 05:08:39;;;;;;;;;53.75;41.25;;;;;4.88;63.14;101997.00;2450726;27;46419;-86
2022/04/10 05:09:50;;;;;;;;;52.50;41.75;;;;;4.88;62.73;101998.75;2451041;27;44717;-85
2022/04/10 05:11:00;;;;;;;;;54.50;41.00;;;;;4.86;63.05;101995.25;2449792;28;47106;-86
2022/04/10 05:12:11;;;;;;;;;53.50;42.25;;;;;4.86;62.63;101993.53;2445838;28;44601;-86
2022/04/10 05:13:21;;;;;;;;;56.00;41.00;;;;;4.82;63.11;101999.53;2444067;28;46993;-86
2022/04/10 05:14:32;;;;;;;;;51.25;40.50;;;;;4.84;62.77;102005.63;2440556;28;45368;-92
2022/04/10 05:15:43;;;;;;;;;52.25;42.25;;;;;4.81;62.80;101997.81;2457743;27;48126;-94
2022/04/10 05:16:53;;;;;;;;;52.25;39.75;;;;;4.79;62.92;101996.91;2447696;28;45297;-90
2022/04/10 05:18:04;;;;;;;;;50.50;41.00;;;;;4.81;62.91;102006.50;2440817;28;46250;-91
2022/04/10 05:19:14;;;;;;;;;51.75;43.25;;;;;4.81;63.02;102005.63;2440391;28;45355;-91
2022/04/10 05:20:25;;;;;;;;;52.75;42.50;;;;;4.78;63.31;102000.38;2440380;28;48014;-90
2022/04/10 05:21:35;;;;;;;;;52.50;42.50;;;;;4.78;63.16;102001.25;2438272;28;44670;-91
2022/04/10 05:22:45;;;;;;;;;52.25;42.00;;;;;4.78;63.00;102000.38;2448052;28;47021;-93
2022/04/10 05:23:56;;;;;;;;;52.00;44.75;;;;;4.75;63.40;101997.72;2443685;28;45252;-92
2022/04/10 05:25:08;;;;;;;;;50.00;41.00;;;;;4.77;63.15;102003.81;2444709;28;48323;-91
2022/04/10 05:26:18;;;;;;;;;54.50;41.50;;;;;4.77;62.81;102004.69;2452389;28;45249;-91